sensor_id;sensor_type;location;lat;lon;timestamp;pressure;altitude;pressure_sealevel;temperature;humidity
11888;BME280;6003;42.756;23.130;2023-03-14T00:00:59;152704.56;;;1.14;71.08
11888;BME280;6003;42.756;23.130;2023-03-14T00:03:28;152726.84;;;1.23;70.15
11888;BME280;6003;42.756;23.130;2023-03-14T00:05:55;152750.44;;;1.32;69.97
11888;BME280;6003;42.756;23.130;2023-03-14T00:08:21;152733.41;;;1.25;70.06
11888;BME280;6003;42.756;23.130;2023-03-14T00:10:50;152728.16;;;1.23;70.45
11888;BME280;6003;42.756;23.130;2023-03-14T00:13:16;152720.28;;;1.20;70.54
11888;BME280;6003;42.756;23.130;2023-03-14T00:15:43;152679.66;;;1.04;70.54
11888;BME280;6003;42.756;23.130;2023-03-14T00:18:11;152684.88;;;1.06;71.30
11888;BME280;6003;42.756;23.130;2023-03-14T00:20:38;152669.13;;;1.00;70.22
11888;BME280;6003;42.756;23.130;2023-03-14T00:23:05;152641.63;;;0.89;71.69
11888;BME280;6003;42.756;23.130;2023-03-14T00:25:32;152646.84;;;0.92;71.48
11888;BME280;6003;42.756;23.130;2023-03-14T00:27:59;152636.38;;;0.87;71.29
11888;BME280;6003;42.756;23.130;2023-03-14T00:30:25;152665.22;;;0.99;71.91
11888;BME280;6003;42.756;23.130;2023-03-14T00:32:52;152653.41;;;0.94;71.09
11888;BME280;6003;42.756;23.130;2023-03-14T00:35:20;152648.16;;;0.92;71.07
11888;BME280;6003;42.756;23.130;2023-03-14T00:37:47;152628.53;;;0.84;71.21
11888;BME280;6003;42.756;23.130;2023-03-14T00:40:14;152611.50;;;0.78;71.59
11888;BME280;6003;42.756;23.130;2023-03-14T00:42:41;152610.13;;;0.77;71.58
11888;BME280;6003;42.756;23.130;2023-03-14T00:45:09;152602.28;;;0.74;72.07
11888;BME280;6003;42.756;23.130;2023-03-14T00:47:36;152618.00;;;0.80;71.49
11888;BME280;6003;42.756;23.130;2023-03-14T00:50:03;152608.84;;;0.77;71.07
11888;BME280;6003;42.756;23.130;2023-03-14T00:52:31;152603.56;;;0.75;71.93
11888;BME280;6003;42.756;23.130;2023-03-14T00:54:58;152600.97;;;0.74;71.06
11888;BME280;6003;42.756;23.130;2023-03-14T00:57:25;152594.41;;;0.71;71.49
11888;BME280;6003;42.756;23.130;2023-03-14T00:59:52;152589.16;;;0.69;71.15
11888;BME280;6003;42.756;23.130;2023-03-14T01:02:19;152587.84;;;0.68;71.81
11888;BME280;6003;42.756;23.130;2023-03-14T01:04:47;152561.66;;;0.58;71.79
11888;BME280;6003;42.756;23.130;2023-03-14T01:07:15;152557.69;;;0.57;72.05
11888;BME280;6003;42.756;23.130;2023-03-14T01:09:43;152545.94;;;0.52;72.32
11888;BME280;6003;42.756;23.130;2023-03-14T01:12:10;152547.25;;;0.53;71.52
11888;BME280;6003;42.756;23.130;2023-03-14T01:14:37;152560.34;;;0.58;72.75
11888;BME280;6003;42.756;23.130;2023-03-14T01:17:03;152560.34;;;0.58;71.70
11888;BME280;6003;42.756;23.130;2023-03-14T01:19:30;152531.53;;;0.47;71.91
11888;BME280;6003;42.756;23.130;2023-03-14T01:21:57;152534.13;;;0.48;71.86
11888;BME280;6003;42.756;23.130;2023-03-14T01:24:24;152552.50;;;0.55;71.93
11888;BME280;6003;42.756;23.130;2023-03-14T01:26:52;152568.22;;;0.61;71.02
11888;BME280;6003;42.756;23.130;2023-03-14T01:29:19;152565.56;;;0.60;70.48
11888;BME280;6003;42.756;23.130;2023-03-14T01:31:46;152565.56;;;0.60;70.88
11888;BME280;6003;42.756;23.130;2023-03-14T01:34:12;152551.16;;;0.54;71.59
11888;BME280;6003;42.756;23.130;2023-03-14T01:36:39;152552.50;;;0.55;70.81
11888;BME280;6003;42.756;23.130;2023-03-14T01:39:06;152547.25;;;0.53;71.17
11888;BME280;6003;42.756;23.130;2023-03-14T01:41:34;152539.38;;;0.50;71.80
11888;BME280;6003;42.756;23.130;2023-03-14T01:44:02;152565.56;;;0.60;70.86
11888;BME280;6003;42.756;23.130;2023-03-14T01:46:35;152557.69;;;0.57;71.16
11888;BME280;6003;42.756;23.130;2023-03-14T01:49:10;152553.81;;;0.55;71.82
11888;BME280;6003;42.756;23.130;2023-03-14T01:51:44;152528.88;;;0.45;71.75
11888;BME280;6003;42.756;23.130;2023-03-14T01:54:15;152531.53;;;0.47;71.54
11888;BME280;6003;42.756;23.130;2023-03-14T01:56:45;152523.66;;;0.43;72.20
11888;BME280;6003;42.756;23.130;2023-03-14T01:59:15;152510.53;;;0.38;72.42
11888;BME280;6003;42.756;23.130;2023-03-14T02:01:44;152500.03;;;0.34;72.37
11888;BME280;6003;42.756;23.130;2023-03-14T02:04:12;152448.91;;;0.14;73.16
11888;BME280;6003;42.756;23.130;2023-03-14T02:06:47;152455.47;;;0.17;73.73
11888;BME280;6003;42.756;23.130;2023-03-14T02:09:15;152447.63;;;0.14;73.43
11888;BME280;6003;42.756;23.130;2023-03-14T02:11:43;152424.03;;;0.05;73.75
11888;BME280;6003;42.756;23.130;2023-03-14T02:14:16;152424.03;;;0.05;74.41
11888;BME280;6003;42.756;23.130;2023-03-14T02:16:45;152396.50;;;-0.06;74.77
11888;BME280;6003;42.756;23.130;2023-03-14T02:19:13;152409.63;;;-0.01;75.82
11888;BME280;6003;42.756;23.130;2023-03-14T02:21:47;152405.72;;;-0.03;75.37
11888;BME280;6003;42.756;23.130;2023-03-14T02:24:20;152395.22;;;-0.07;75.90
11888;BME280;6003;42.756;23.130;2023-03-14T02:27:14;152383.44;;;-0.11;76.22
11888;BME280;6003;42.756;23.130;2023-03-14T02:29:48;152366.38;;;-0.18;75.95
11888;BME280;6003;42.756;23.130;2023-03-14T02:32:16;152371.66;;;-0.16;76.49
11888;BME280;6003;42.756;23.130;2023-03-14T02:34:49;152353.34;;;-0.23;77.10
11888;BME280;6003;42.756;23.130;2023-03-14T02:37:19;152357.22;;;-0.21;77.20
11888;BME280;6003;42.756;23.130;2023-03-14T02:39:47;152354.63;;;-0.22;76.93
11888;BME280;6003;42.756;23.130;2023-03-14T02:42:16;152353.34;;;-0.23;76.75
11888;BME280;6003;42.756;23.130;2023-03-14T02:44:52;152341.53;;;-0.28;76.72
11888;BME280;6003;42.756;23.130;2023-03-14T02:47:22;152334.97;;;-0.30;76.64
11888;BME280;6003;42.756;23.130;2023-03-14T02:49:57;152325.81;;;-0.34;77.26
11888;BME280;6003;42.756;23.130;2023-03-14T02:52:26;152316.66;;;-0.37;77.71
11888;BME280;6003;42.756;23.130;2023-03-14T02:54:53;152329.72;;;-0.32;76.71
11888;BME280;6003;42.756;23.130;2023-03-14T02:57:21;152328.41;;;-0.33;76.82
11888;BME280;6003;42.756;23.130;2023-03-14T02:59:48;152328.41;;;-0.33;77.32
11888;BME280;6003;42.756;23.130;2023-03-14T03:02:14;152321.88;;;-0.35;77.64
11888;BME280;6003;42.756;23.130;2023-03-14T03:04:41;152303.56;;;-0.42;77.65
11888;BME280;6003;42.756;23.130;2023-03-14T03:07:08;152303.56;;;-0.42;77.50
11888;BME280;6003;42.756;23.130;2023-03-14T03:09:35;152302.25;;;-0.43;77.34
11888;BME280;6003;42.756;23.130;2023-03-14T03:12:02;152283.88;;;-0.50;77.58
11888;BME280;6003;42.756;23.130;2023-03-14T03:14:30;152283.88;;;-0.50;77.61
11888;BME280;6003;42.756;23.130;2023-03-14T03:16:57;152282.59;;;-0.51;78.12
11888;BME280;6003;42.756;23.130;2023-03-14T03:19:24;152266.88;;;-0.57;78.07
11888;BME280;6003;42.756;23.130;2023-03-14T03:21:50;152253.78;;;-0.62;78.14
11888;BME280;6003;42.756;23.130;2023-03-14T03:24:17;152214.50;;;-0.77;79.79
11888;BME280;6003;42.756;23.130;2023-03-14T03:26:44;152211.84;;;-0.78;80.27
11888;BME280;6003;42.756;23.130;2023-03-14T03:29:11;152232.81;;;-0.70;80.47
11888;BME280;6003;42.756;23.130;2023-03-14T03:31:39;152243.31;;;-0.66;79.26
11888;BME280;6003;42.756;23.130;2023-03-14T03:34:06;152261.63;;;-0.59;79.12
11888;BME280;6003;42.756;23.130;2023-03-14T03:36:33;152270.78;;;-0.55;79.43
11888;BME280;6003;42.756;23.130;2023-03-14T03:39:00;152282.59;;;-0.51;78.75
11888;BME280;6003;42.756;23.130;2023-03-14T03:41:26;152286.50;;;-0.49;78.91
11888;BME280;6003;42.756;23.130;2023-03-14T03:43:53;152285.19;;;-0.50;79.15
11888;BME280;6003;42.756;23.130;2023-03-14T03:46:20;152282.59;;;-0.51;78.93
11888;BME280;6003;42.756;23.130;2023-03-14T03:48:59;152262.94;;;-0.58;79.61
11888;BME280;6003;42.756;23.130;2023-03-14T03:51:26;152255.06;;;-0.61;79.50
11888;BME280;6003;42.756;23.130;2023-03-14T03:53:53;152249.81;;;-0.63;79.83
11888;BME280;6003;42.756;23.130;2023-03-14T03:56:20;152253.78;;;-0.62;79.34
11888;BME280;6003;42.756;23.130;2023-03-14T03:58:46;152253.78;;;-0.62;79.79
11888;BME280;6003;42.756;23.130;2023-03-14T04:01:13;152253.78;;;-0.62;79.74
11888;BME280;6003;42.756;23.130;2023-03-14T04:03:40;152266.88;;;-0.57;78.93
11888;BME280;6003;42.756;23.130;2023-03-14T04:06:10;152256.38;;;-0.61;78.52
11888;BME280;6003;42.756;23.130;2023-03-14T04:08:37;152264.22;;;-0.58;79.34
11888;BME280;6003;42.756;23.130;2023-03-14T04:11:06;152253.78;;;-0.62;78.99
11888;BME280;6003;42.756;23.130;2023-03-14T04:13:32;152251.16;;;-0.63;78.90
11888;BME280;6003;42.756;23.130;2023-03-14T04:15:59;152256.38;;;-0.61;78.50
11888;BME280;6003;42.756;23.130;2023-03-14T04:18:27;152251.16;;;-0.63;78.45
11888;BME280;6003;42.756;23.130;2023-03-14T04:20:56;152245.91;;;-0.65;78.64
11888;BME280;6003;42.756;23.130;2023-03-14T04:23:25;152245.91;;;-0.65;78.51
11888;BME280;6003;42.756;23.130;2023-03-14T04:25:52;152232.81;;;-0.70;78.14
11888;BME280;6003;42.756;23.130;2023-03-14T04:28:19;152221.06;;;-0.75;78.59
11888;BME280;6003;42.756;23.130;2023-03-14T04:30:46;152251.16;;;-0.63;78.55
11888;BME280;6003;42.756;23.130;2023-03-14T04:33:13;152238.06;;;-0.68;78.28
11888;BME280;6003;42.756;23.130;2023-03-14T04:35:42;152251.16;;;-0.63;78.76
11888;BME280;6003;42.756;23.130;2023-03-14T04:38:09;152257.72;;;-0.60;78.69
11888;BME280;6003;42.756;23.130;2023-03-14T04:40:38;152248.53;;;-0.64;78.79
11888;BME280;6003;42.756;23.130;2023-03-14T04:43:05;152240.66;;;-0.67;78.73
11888;BME280;6003;42.756;23.130;2023-03-14T04:45:31;152232.81;;;-0.70;78.71
11888;BME280;6003;42.756;23.130;2023-03-14T04:47:58;152240.66;;;-0.67;78.54
11888;BME280;6003;42.756;23.130;2023-03-14T04:50:25;152236.78;;;-0.69;78.77
11888;BME280;6003;42.756;23.130;2023-03-14T04:52:52;152241.97;;;-0.66;78.77
11888;BME280;6003;42.756;23.130;2023-03-14T04:55:19;152260.31;;;-0.59;79.03
11888;BME280;6003;42.756;23.130;2023-03-14T04:57:47;152285.19;;;-0.50;77.97
11888;BME280;6003;42.756;23.130;2023-03-14T05:00:14;152304.84;;;-0.42;78.43
11888;BME280;6003;42.756;23.130;2023-03-14T05:02:43;152369.03;;;-0.17;77.65
11888;BME280;6003;42.756;23.130;2023-03-14T05:05:10;152403.06;;;-0.04;77.27
11888;BME280;6003;42.756;23.130;2023-03-14T05:07:37;152421.44;;;0.04;76.62
11888;BME280;6003;42.756;23.130;2023-03-14T05:10:04;152471.19;;;0.23;75.93
11888;BME280;6003;42.756;23.130;2023-03-14T05:12:31;152645.53;;;0.91;75.74
11888;BME280;6003;42.756;23.130;2023-03-14T05:14:59;152917.09;;;1.97;73.52
11888;BME280;6003;42.756;23.130;2023-03-14T05:17:26;153163.91;;;2.93;70.53
11888;BME280;6003;42.756;23.130;2023-03-14T05:19:53;153330.78;;;3.58;67.82
11888;BME280;6003;42.756;23.130;2023-03-14T05:22:20;153484.59;;;4.18;64.73
11888;BME280;6003;42.756;23.130;2023-03-14T05:24:46;153616.09;;;4.69;61.30
11888;BME280;6003;42.756;23.130;2023-03-14T05:27:13;153772.69;;;5.30;60.26
11888;BME280;6003;42.756;23.130;2023-03-14T05:29:40;153760.84;;;5.25;58.70
11888;BME280;6003;42.756;23.130;2023-03-14T05:32:08;153759.53;;;5.25;57.87
11888;BME280;6003;42.756;23.130;2023-03-14T05:34:35;153713.47;;;5.07;58.05
11888;BME280;6003;42.756;23.130;2023-03-14T05:37:02;153748.97;;;5.20;58.74
11888;BME280;6003;42.756;23.130;2023-03-14T05:39:29;153718.72;;;5.09;58.08
11888;BME280;6003;42.756;23.130;2023-03-14T05:41:55;153729.28;;;5.13;57.69
11888;BME280;6003;42.756;23.130;2023-03-14T05:44:23;153705.59;;;5.04;57.42
11888;BME280;6003;42.756;23.130;2023-03-14T05:46:49;153647.69;;;4.81;58.82
11888;BME280;6003;42.756;23.130;2023-03-14T05:49:18;153528.00;;;4.35;59.67
11888;BME280;6003;42.756;23.130;2023-03-14T05:51:44;153453.00;;;4.05;60.65
11888;BME280;6003;42.756;23.130;2023-03-14T05:54:11;153432.03;;;3.97;62.65
11888;BME280;6003;42.756;23.130;2023-03-14T05:56:38;153421.47;;;3.93;63.32
11888;BME280;6003;42.756;23.130;2023-03-14T05:59:05;153407.00;;;3.88;62.08
11888;BME280;6003;42.756;23.130;2023-03-14T06:01:34;153374.16;;;3.75;62.21
11888;BME280;6003;42.756;23.130;2023-03-14T06:04:01;153368.91;;;3.73;62.72
11888;BME280;6003;42.756;23.130;2023-03-14T06:06:29;153347.88;;;3.65;63.03
11888;BME280;6003;42.756;23.130;2023-03-14T06:08:56;153326.81;;;3.56;62.62
11888;BME280;6003;42.756;23.130;2023-03-14T06:11:23;153329.47;;;3.57;63.12
11888;BME280;6003;42.756;23.130;2023-03-14T06:13:50;153345.25;;;3.64;63.18
11888;BME280;6003;42.756;23.130;2023-03-14T06:16:17;153387.31;;;3.80;63.76
11888;BME280;6003;42.756;23.130;2023-03-14T06:18:45;153400.44;;;3.85;64.00
11888;BME280;6003;42.756;23.130;2023-03-14T06:21:14;153379.38;;;3.77;62.81
11888;BME280;6003;42.756;23.130;2023-03-14T06:23:42;153413.59;;;3.90;63.20
11888;BME280;6003;42.756;23.130;2023-03-14T06:26:09;153413.59;;;3.90;62.24
11888;BME280;6003;42.756;23.130;2023-03-14T06:28:37;153433.31;;;3.98;63.56
11888;BME280;6003;42.756;23.130;2023-03-14T06:31:04;153413.59;;;3.90;63.38
11888;BME280;6003;42.756;23.130;2023-03-14T06:33:31;153425.44;;;3.95;62.59
11888;BME280;6003;42.756;23.130;2023-03-14T06:35:58;153387.31;;;3.80;64.10
11888;BME280;6003;42.756;23.130;2023-03-14T06:38:25;153400.44;;;3.85;64.00
11888;BME280;6003;42.756;23.130;2023-03-14T06:40:53;153400.44;;;3.85;65.07
11888;BME280;6003;42.756;23.130;2023-03-14T06:43:20;153380.75;;;3.77;65.64
11888;BME280;6003;42.756;23.130;2023-03-14T06:45:46;153378.09;;;3.76;66.59
11888;BME280;6003;42.756;23.130;2023-03-14T06:48:13;153374.16;;;3.75;67.39
11888;BME280;6003;42.756;23.130;2023-03-14T06:50:41;153422.78;;;3.94;65.51
11888;BME280;6003;42.756;23.130;2023-03-14T06:53:08;153456.97;;;4.07;65.01
11888;BME280;6003;42.756;23.130;2023-03-14T06:55:35;153500.38;;;4.24;64.82
11888;BME280;6003;42.756;23.130;2023-03-14T06:58:03;153526.66;;;4.34;63.96
11888;BME280;6003;42.756;23.130;2023-03-14T07:00:32;153541.13;;;4.40;64.58
11888;BME280;6003;42.756;23.130;2023-03-14T07:02:59;153567.44;;;4.50;64.94
11888;BME280;6003;42.756;23.130;2023-03-14T07:05:26;153577.94;;;4.54;64.66
11888;BME280;6003;42.756;23.130;2023-03-14T07:07:52;153606.88;;;4.65;63.51
11888;BME280;6003;42.756;23.130;2023-03-14T07:10:19;153649.00;;;4.82;63.44
11888;BME280;6003;42.756;23.130;2023-03-14T07:12:46;153680.56;;;4.94;63.36
11888;BME280;6003;42.756;23.130;2023-03-14T07:15:15;153709.50;;;5.05;62.67
11888;BME280;6003;42.756;23.130;2023-03-14T07:17:41;153731.88;;;5.14;61.48
11888;BME280;6003;42.756;23.130;2023-03-14T07:20:09;153779.28;;;5.32;61.14
11888;BME280;6003;42.756;23.130;2023-03-14T07:22:36;153802.97;;;5.41;61.96
11888;BME280;6003;42.756;23.130;2023-03-14T07:25:04;153820.06;;;5.48;60.76
11888;BME280;6003;42.756;23.130;2023-03-14T07:27:31;153862.22;;;5.64;62.31
11888;BME280;6003;42.756;23.130;2023-03-14T07:29:58;153884.59;;;5.73;60.54
11888;BME280;6003;42.756;23.130;2023-03-14T07:32:26;153921.47;;;5.87;59.65
11888;BME280;6003;42.756;23.130;2023-03-14T07:34:53;153950.47;;;5.99;60.65
11888;BME280;6003;42.756;23.130;2023-03-14T07:37:19;153989.97;;;6.14;59.73
11888;BME280;6003;42.756;23.130;2023-03-14T07:39:46;154047.94;;;6.37;60.38
11888;BME280;6003;42.756;23.130;2023-03-14T07:42:13;154074.25;;;6.47;58.71
11888;BME280;6003;42.756;23.130;2023-03-14T07:44:40;154087.44;;;6.52;60.43
11888;BME280;6003;42.756;23.130;2023-03-14T07:47:07;154119.06;;;6.64;61.83
11888;BME280;6003;42.756;23.130;2023-03-14T07:49:35;154137.53;;;6.71;61.12
11888;BME280;6003;42.756;23.130;2023-03-14T07:52:02;154177.03;;;6.87;60.37
11888;BME280;6003;42.756;23.130;2023-03-14T07:54:29;154188.94;;;6.91;60.30
11888;BME280;6003;42.756;23.130;2023-03-14T07:56:56;154100.63;;;6.57;58.89
11888;BME280;6003;42.756;23.130;2023-03-14T07:59:24;154100.63;;;6.57;60.03
11888;BME280;6003;42.756;23.130;2023-03-14T08:01:50;154091.44;;;6.53;60.43
11888;BME280;6003;42.756;23.130;2023-03-14T08:04:17;154129.63;;;6.68;59.37
11888;BME280;6003;42.756;23.130;2023-03-14T08:06:45;154178.34;;;6.87;59.83
11888;BME280;6003;42.756;23.130;2023-03-14T08:09:12;154295.69;;;7.33;62.12
11888;BME280;6003;42.756;23.130;2023-03-14T08:11:39;154432.84;;;7.86;58.65
11888;BME280;6003;42.756;23.130;2023-03-14T08:14:06;154446.00;;;7.91;57.37
11888;BME280;6003;42.756;23.130;2023-03-14T08:16:33;154436.78;;;7.87;56.62
11888;BME280;6003;42.756;23.130;2023-03-14T08:18:59;154378.72;;;7.65;55.99
11888;BME280;6003;42.756;23.130;2023-03-14T08:21:26;154390.63;;;7.69;58.16
11888;BME280;6003;42.756;23.130;2023-03-14T08:23:54;154395.91;;;7.72;56.29
11888;BME280;6003;42.756;23.130;2023-03-14T08:26:21;154373.50;;;7.63;57.49
11888;BME280;6003;42.756;23.130;2023-03-14T08:28:48;154372.19;;;7.62;57.63
11888;BME280;6003;42.756;23.130;2023-03-14T08:31:15;154312.84;;;7.39;57.91
11888;BME280;6003;42.756;23.130;2023-03-14T08:33:41;154322.06;;;7.43;58.98
11888;BME280;6003;42.756;23.130;2023-03-14T08:36:09;154307.56;;;7.37;60.21
11888;BME280;6003;42.756;23.130;2023-03-14T08:38:36;154322.06;;;7.43;60.54
11888;BME280;6003;42.756;23.130;2023-03-14T08:41:04;154316.78;;;7.41;59.33
11888;BME280;6003;42.756;23.130;2023-03-14T08:43:31;154275.94;;;7.25;60.23
11888;BME280;6003;42.756;23.130;2023-03-14T08:45:59;154390.63;;;7.69;61.34
11888;BME280;6003;42.756;23.130;2023-03-14T08:48:26;154348.41;;;7.53;57.70
11888;BME280;6003;42.756;23.130;2023-03-14T08:50:55;154382.72;;;7.66;55.87
11888;BME280;6003;42.756;23.130;2023-03-14T08:53:22;154300.97;;;7.35;58.30
11888;BME280;6003;42.756;23.130;2023-03-14T08:55:52;154326.00;;;7.44;57.69
11888;BME280;6003;42.756;23.130;2023-03-14T08:58:20;154388.00;;;7.68;57.62
11888;BME280;6003;42.756;23.130;2023-03-14T09:00:48;154506.72;;;8.14;60.92
11888;BME280;6003;42.756;23.130;2023-03-14T09:03:15;154605.69;;;8.53;54.58
11888;BME280;6003;42.756;23.130;2023-03-14T09:05:42;154636.03;;;8.65;52.34
11888;BME280;6003;42.756;23.130;2023-03-14T09:08:09;154568.75;;;8.39;53.07
11888;BME280;6003;42.756;23.130;2023-03-14T09:10:36;154638.66;;;8.66;54.36
11888;BME280;6003;42.756;23.130;2023-03-14T09:13:03;154678.31;;;8.81;54.05
11888;BME280;6003;42.756;23.130;2023-03-14T09:15:32;154662.47;;;8.75;53.15
11888;BME280;6003;42.756;23.130;2023-03-14T09:17:59;154719.19;;;8.97;54.07
11888;BME280;6003;42.756;23.130;2023-03-14T09:20:26;154754.84;;;9.11;53.42
11888;BME280;6003;42.756;23.130;2023-03-14T09:22:53;154775.97;;;9.19;52.46
11888;BME280;6003;42.756;23.130;2023-03-14T09:25:20;154815.56;;;9.34;57.57
11888;BME280;6003;42.756;23.130;2023-03-14T09:27:46;154815.56;;;9.34;50.33
11888;BME280;6003;42.756;23.130;2023-03-14T09:30:13;154786.53;;;9.23;50.31
11888;BME280;6003;42.756;23.130;2023-03-14T09:32:41;154842.00;;;9.44;53.72
11888;BME280;6003;42.756;23.130;2023-03-14T09:35:09;154945.03;;;9.84;51.10
11888;BME280;6003;42.756;23.130;2023-03-14T09:37:36;155009.75;;;10.09;53.41
11888;BME280;6003;42.756;23.130;2023-03-14T09:40:04;155024.28;;;10.15;51.39
11888;BME280;6003;42.756;23.130;2023-03-14T09:42:36;154989.97;;;10.02;47.66
11888;BME280;6003;42.756;23.130;2023-03-14T09:45:07;154983.34;;;9.99;47.98
11888;BME280;6003;42.756;23.130;2023-03-14T09:47:37;154946.34;;;9.85;47.50
11888;BME280;6003;42.756;23.130;2023-03-14T09:50:11;155013.72;;;10.11;47.37
11888;BME280;6003;42.756;23.130;2023-03-14T09:52:40;155024.28;;;10.15;50.09
11888;BME280;6003;42.756;23.130;2023-03-14T09:55:11;154950.28;;;9.86;49.14
11888;BME280;6003;42.756;23.130;2023-03-14T09:57:41;154897.47;;;9.66;50.15
11888;BME280;6003;42.756;23.130;2023-03-14T10:00:14;154974.13;;;9.96;50.17
11888;BME280;6003;42.756;23.130;2023-03-14T10:02:47;154987.28;;;10.01;50.03
11888;BME280;6003;42.756;23.130;2023-03-14T10:05:20;155038.81;;;10.21;49.29
11888;BME280;6003;42.756;23.130;2023-03-14T10:07:47;155042.81;;;10.22;50.32
11888;BME280;6003;42.756;23.130;2023-03-14T10:10:17;155008.44;;;10.09;47.52
11888;BME280;6003;42.756;23.130;2023-03-14T10:12:45;155045.44;;;10.23;49.69
11888;BME280;6003;42.756;23.130;2023-03-14T10:15:15;155196.16;;;10.81;51.31
11888;BME280;6003;42.756;23.130;2023-03-14T10:17:50;155249.06;;;11.02;46.13
11888;BME280;6003;42.756;23.130;2023-03-14T10:20:30;155223.94;;;10.92;46.21
11888;BME280;6003;42.756;23.130;2023-03-14T10:23:02;155230.53;;;10.95;47.18
11888;BME280;6003;42.756;23.130;2023-03-14T10:25:31;155258.31;;;11.05;48.25
11888;BME280;6003;42.756;23.130;2023-03-14T10:27:59;155296.66;;;11.20;48.48
11888;BME280;6003;42.756;23.130;2023-03-14T10:30:33;155259.63;;;11.06;48.23
11888;BME280;6003;42.756;23.130;2023-03-14T10:33:10;155328.38;;;11.33;46.01
11888;BME280;6003;42.756;23.130;2023-03-14T10:35:39;155346.94;;;11.40;46.75
11888;BME280;6003;42.756;23.130;2023-03-14T10:38:12;155405.09;;;11.62;43.48
11888;BME280;6003;42.756;23.130;2023-03-14T10:40:40;155426.25;;;11.70;43.92
11888;BME280;6003;42.756;23.130;2023-03-14T10:43:14;155442.13;;;11.77;45.04
11888;BME280;6003;42.756;23.130;2023-03-14T10:45:43;155484.53;;;11.93;43.91
11888;BME280;6003;42.756;23.130;2023-03-14T10:48:22;155520.28;;;12.07;43.26
11888;BME280;6003;42.756;23.130;2023-03-14T10:50:54;155542.78;;;12.15;45.00
11888;BME280;6003;42.756;23.130;2023-03-14T10:53:22;155570.59;;;12.26;44.93
11888;BME280;6003;42.756;23.130;2023-03-14T10:55:49;155634.09;;;12.51;48.38
11888;BME280;6003;42.756;23.130;2023-03-14T10:58:24;155712.22;;;12.81;46.53
11888;BME280;6003;42.756;23.130;2023-03-14T11:01:13;155702.94;;;12.77;43.49
11888;BME280;6003;42.756;23.130;2023-03-14T11:03:45;155692.34;;;12.73;44.06
11888;BME280;6003;42.756;23.130;2023-03-14T11:06:22;155664.53;;;12.62;41.99
11888;BME280;6003;42.756;23.130;2023-03-14T11:08:55;155681.78;;;12.69;45.29
11888;BME280;6003;42.756;23.130;2023-03-14T11:11:27;155660.59;;;12.61;42.84
11888;BME280;6003;42.756;23.130;2023-03-14T11:14:04;155649.97;;;12.57;43.32
11888;BME280;6003;42.756;23.130;2023-03-14T11:16:40;155661.91;;;12.61;44.08
11888;BME280;6003;42.756;23.130;2023-03-14T11:19:21;155620.84;;;12.46;43.49
11888;BME280;6003;42.756;23.130;2023-03-14T11:21:59;155649.97;;;12.57;42.85
11888;BME280;6003;42.756;23.130;2023-03-14T11:24:36;155631.47;;;12.50;42.37
11888;BME280;6003;42.756;23.130;2023-03-14T11:27:11;155651.34;;;12.57;41.88
11888;BME280;6003;42.756;23.130;2023-03-14T11:29:41;155672.47;;;12.65;42.26
11888;BME280;6003;42.756;23.130;2023-03-14T11:32:13;155676.47;;;12.67;42.37
11888;BME280;6003;42.756;23.130;2023-03-14T11:34:49;155757.25;;;12.98;45.47
11888;BME280;6003;42.756;23.130;2023-03-14T11:37:23;155757.25;;;12.98;40.30
11888;BME280;6003;42.756;23.130;2023-03-14T11:39:57;155750.63;;;12.96;41.39
11888;BME280;6003;42.756;23.130;2023-03-14T11:42:27;155765.19;;;13.01;42.72
11888;BME280;6003;42.756;23.130;2023-03-14T11:44:55;155802.28;;;13.16;41.91
11888;BME280;6003;42.756;23.130;2023-03-14T11:47:26;155802.28;;;13.16;41.26
11888;BME280;6003;42.756;23.130;2023-03-14T11:49:58;155763.88;;;13.01;41.90
11888;BME280;6003;42.756;23.130;2023-03-14T11:52:32;155740.00;;;12.92;41.18
11888;BME280;6003;42.756;23.130;2023-03-14T11:55:04;155741.38;;;12.92;40.36
11888;BME280;6003;42.756;23.130;2023-03-14T11:57:32;155730.75;;;12.88;40.13
11888;BME280;6003;42.756;23.130;2023-03-14T12:00:03;155778.44;;;13.06;44.71
11888;BME280;6003;42.756;23.130;2023-03-14T12:02:38;155812.84;;;13.20;41.64
11888;BME280;6003;42.756;23.130;2023-03-14T12:05:33;155836.72;;;13.29;39.89
11888;BME280;6003;42.756;23.130;2023-03-14T12:11:12;155831.47;;;13.27;39.53
11888;BME280;6003;42.756;23.130;2023-03-14T12:13:41;155804.91;;;13.17;40.26
11888;BME280;6003;42.756;23.130;2023-03-14T12:16:26;155838.09;;;13.29;40.77
11888;BME280;6003;42.756;23.130;2023-03-14T12:18:54;155868.56;;;13.41;41.83
11888;BME280;6003;42.756;23.130;2023-03-14T12:21:46;155767.81;;;13.02;39.33
11888;BME280;6003;42.756;23.130;2023-03-14T12:24:18;155724.13;;;12.85;39.58
11888;BME280;6003;42.756;23.130;2023-03-14T12:26:52;155765.19;;;13.01;40.68
11888;BME280;6003;42.756;23.130;2023-03-14T12:29:19;155847.38;;;13.33;40.46
11888;BME280;6003;42.756;23.130;2023-03-14T12:31:47;155884.44;;;13.47;40.54
11888;BME280;6003;42.756;23.130;2023-03-14T12:34:35;155887.09;;;13.48;39.37
11888;BME280;6003;42.756;23.130;2023-03-14T12:37:13;155868.56;;;13.41;42.27
11888;BME280;6003;42.756;23.130;2023-03-14T12:39:53;155865.88;;;13.40;38.97
11888;BME280;6003;42.756;23.130;2023-03-14T12:42:38;155828.78;;;13.26;39.74
11888;BME280;6003;42.756;23.130;2023-03-14T12:45:24;155790.34;;;13.11;41.36
11888;BME280;6003;42.756;23.130;2023-03-14T12:48:06;155815.53;;;13.21;41.51
11888;BME280;6003;42.756;23.130;2023-03-14T12:50:37;155852.66;;;13.35;40.86
11888;BME280;6003;42.756;23.130;2023-03-14T12:56:11;155880.44;;;13.46;41.73
11888;BME280;6003;42.756;23.130;2023-03-14T12:58:58;155913.59;;;13.59;42.35
11888;BME280;6003;42.756;23.130;2023-03-14T13:01:28;155953.34;;;13.74;43.08
11888;BME280;6003;42.756;23.130;2023-03-14T13:03:56;155971.91;;;13.81;41.72
11888;BME280;6003;42.756;23.130;2023-03-14T13:06:49;155979.84;;;13.84;41.12
11888;BME280;6003;42.756;23.130;2023-03-14T13:09:50;156032.88;;;14.05;43.38
11888;BME280;6003;42.756;23.130;2023-03-14T13:12:23;156024.91;;;14.02;41.02